Moosonee Airport
CYMO : now visible

Airfield :











YOU CAN JOIN US ON...

 
LOGIN :

Register | Disclaimer

   EN    FR    IT 

 









Legend :    VFR   Marginal VFR   IFR   Intensive IFR   Very Intensive IFR
Visi :
Ceiling :
>= 8 km
>= 3000ft
5 to 8 km
1000 to 3000 ft
1500m to 5 km
500 to 1000 ft
800 to 1500m
200 to 500 ft
< 800m
< 200 ft
Symbols :   Thunderstorms  Fog  Heavy snow  Heavy precipitations  Wind > 20 kt






- Airport Elevation : 30 ft
- IATA code : YMO


CYMO - Moosonee

CURRENT METAR :
  • 042207Z AUTO 27009KT 5SM -SN SCT014 OVC019 M04/M06 A2988 RMK SLP122

EXPIRED METARs :
  • 042126Z AUTO 26009KT 6SM -SN SCT013 OVC024 M05/M06 A2986 RMK SLP116
  • 042117Z AUTO 25009KT 5SM -SN SCT013 OVC024 M05/M06 A2986 RMK SLP116
  • 042114Z AUTO 26008KT 6SM -SN FEW013 OVC024 M05/M06 A2986 RMK SLP115
  • 042044Z AUTO 25007KT 5SM -SN BKN026 OVC035 M05/M06 A2986 RMK SLP112
  • 042003Z AUTO 26011KT 5SM -SN OVC013 M05/M06 A2984 RMK SLP106
  • 041943Z AUTO 26011KT 6SM -SN FEW007 BKN013 OVC019 M04/M06 A2983 RMK SLP104

TAF AMD TAF CYMO
Valid from the 04 at 21:00 until the 05 at 06:00 UTC


042135Z 0421/0506 26010KT 6SM -SN OVC025
TEMPO 0421/0503 4SM -SN OVC020
BECMG 0422/0424 29012KT
FM050300 34012KT 6SM -SN OVC015 RMK FCST BASED ON AUTO OBS. NXT FCST BY 050000Z
CZYZ FIR / North America



MET'MAP, your aeronautical weather chart ! - Copyright ORBIFLY December 2007 - Disclaimer

ORBIFLY MET'MAP TEAM :

Programming & Development : Alexandra Zaïnal
Concept & original design : Baudouin d'Aumeries
Assistance for programming : Marc-Olivier Méhu
Technical & hardware support : Manuel Goepfert

Contact : metmap@orbifly.com




SOURCES & CREDITS :

   NOAA       Earth
Advisory